sensor_id;sensor_type;location;lat;lon;timestamp;pressure;altitude;pressure_sealevel;temperature;humidity
56721;BME280;53183;47.412;18.884;2024-03-06T00:00:31;99028.09;;;6.26;100.00
56721;BME280;53183;47.412;18.884;2024-03-06T00:03:00;99025.22;;;6.32;100.00
56721;BME280;53183;47.412;18.884;2024-03-06T00:05:28;99026.31;;;6.27;100.00
56721;BME280;53183;47.412;18.884;2024-03-06T00:07:55;99037.03;;;6.22;100.00
56721;BME280;53183;47.412;18.884;2024-03-06T00:10:22;99036.75;;;6.08;100.00
56721;BME280;53183;47.412;18.884;2024-03-06T00:12:50;99042.13;;;6.05;100.00
56721;BME280;53183;47.412;18.884;2024-03-06T00:15:17;99040.44;;;6.04;100.00
56721;BME280;53183;47.412;18.884;2024-03-06T00:17:44;99042.25;;;6.02;100.00
56721;BME280;53183;47.412;18.884;2024-03-06T00:20:12;99037.88;;;6.02;100.00
56721;BME280;53183;47.412;18.884;2024-03-06T00:22:40;99041.63;;;5.97;100.00
56721;BME280;53183;47.412;18.884;2024-03-06T00:25:08;99042.22;;;6.03;100.00
56721;BME280;53183;47.412;18.884;2024-03-06T00:27:35;99038.53;;;6.07;100.00
56721;BME280;53183;47.412;18.884;2024-03-06T00:30:03;99040.44;;;6.04;100.00
56721;BME280;53183;47.412;18.884;2024-03-06T00:32:31;99041.75;;;5.92;100.00
56721;BME280;53183;47.412;18.884;2024-03-06T00:34:58;99039.53;;;5.83;100.00
56721;BME280;53183;47.412;18.884;2024-03-06T00:37:25;99043.25;;;5.99;100.00
56721;BME280;53183;47.412;18.884;2024-03-06T00:39:53;99045.16;;;5.96;100.00
56721;BME280;53183;47.412;18.884;2024-03-06T00:42:21;99052.22;;;5.94;100.00
56721;BME280;53183;47.412;18.884;2024-03-06T00:44:48;99053.03;;;5.96;100.00
56721;BME280;53183;47.412;18.884;2024-03-06T00:47:16;99047.84;;;5.94;100.00
56721;BME280;53183;47.412;18.884;2024-03-06T00:49:43;99051.19;;;5.98;100.00
56721;BME280;53183;47.412;18.884;2024-03-06T00:52:11;99051.13;;;5.99;100.00
56721;BME280;53183;47.412;18.884;2024-03-06T00:54:38;99058.78;;;6.04;100.00
56721;BME280;53183;47.412;18.884;2024-03-06T00:57:06;99053.41;;;6.07;100.00
56721;BME280;53183;47.412;18.884;2024-03-06T00:59:33;99052.44;;;6.09;100.00
56721;BME280;53183;47.412;18.884;2024-03-06T01:02:00;99053.41;;;6.07;100.00
56721;BME280;53183;47.412;18.884;2024-03-06T01:04:28;99059.50;;;6.07;100.00
56721;BME280;53183;47.412;18.884;2024-03-06T01:06:55;99054.59;;;6.00;100.00
56721;BME280;53183;47.412;18.884;2024-03-06T01:09:24;99049.78;;;5.89;100.00
56721;BME280;53183;47.412;18.884;2024-03-06T01:11:52;99063.31;;;5.78;100.00
56721;BME280;53183;47.412;18.884;2024-03-06T01:14:19;99056.75;;;5.68;100.00
56721;BME280;53183;47.412;18.884;2024-03-06T01:16:46;99056.81;;;5.67;100.00
56721;BME280;53183;47.412;18.884;2024-03-06T01:19:14;99057.19;;;5.57;100.00
56721;BME280;53183;47.412;18.884;2024-03-06T01:21:41;99051.47;;;5.48;100.00
56721;BME280;53183;47.412;18.884;2024-03-06T01:24:08;99053.78;;;5.33;100.00
56721;BME280;53183;47.412;18.884;2024-03-06T01:26:36;99068.94;;;5.25;100.00
56721;BME280;53183;47.412;18.884;2024-03-06T01:29:04;99059.66;;;5.16;100.00
56721;BME280;53183;47.412;18.884;2024-03-06T01:31:32;99063.28;;;5.14;100.00
56721;BME280;53183;47.412;18.884;2024-03-06T01:33:59;99055.03;;;5.01;100.00
56721;BME280;53183;47.412;18.884;2024-03-06T01:36:27;99067.09;;;5.05;100.00
56721;BME280;53183;47.412;18.884;2024-03-06T01:38:55;99063.66;;;5.03;100.00
56721;BME280;53183;47.412;18.884;2024-03-06T01:41:22;99059.12;;;5.08;100.00
56721;BME280;53183;47.412;18.884;2024-03-06T01:43:50;99062.34;;;5.15;100.00
56721;BME280;53183;47.412;18.884;2024-03-06T01:46:17;99058.59;;;4.99;100.00
56721;BME280;53183;47.412;18.884;2024-03-06T01:48:45;99058.22;;;4.86;100.00
56721;BME280;53183;47.412;18.884;2024-03-06T01:51:13;99065.63;;;4.98;100.00
56721;BME280;53183;47.412;18.884;2024-03-06T01:53:41;99059.44;;;4.77;100.00
56721;BME280;53183;47.412;18.884;2024-03-06T01:56:08;99065.78;;;4.70;100.00
56721;BME280;53183;47.412;18.884;2024-03-06T01:58:39;99059.75;;;4.68;100.00
56721;BME280;53183;47.412;18.884;2024-03-06T02:01:06;99063.56;;;4.59;100.00
56721;BME280;53183;47.412;18.884;2024-03-06T02:03:37;99058.50;;;4.55;100.00
56721;BME280;53183;47.412;18.884;2024-03-06T02:06:04;99068.28;;;4.50;100.00
56721;BME280;53183;47.412;18.884;2024-03-06T02:08:31;99068.47;;;4.43;100.00
56721;BME280;53183;47.412;18.884;2024-03-06T02:10:59;99069.34;;;4.44;100.00
56721;BME280;53183;47.412;18.884;2024-03-06T02:13:30;99069.13;;;4.50;100.00
56721;BME280;53183;47.412;18.884;2024-03-06T02:15:57;99070.44;;;4.62;100.00
56721;BME280;53183;47.412;18.884;2024-03-06T02:18:27;99076.72;;;4.58;100.00
56721;BME280;53183;47.412;18.884;2024-03-06T02:20:54;99067.53;;;4.46;100.00
56721;BME280;53183;47.412;18.884;2024-03-06T02:23:22;99064.16;;;4.42;100.00
56721;BME280;53183;47.412;18.884;2024-03-06T02:25:50;99068.66;;;4.39;100.00
56721;BME280;53183;47.412;18.884;2024-03-06T02:28:18;99062.81;;;4.31;100.00
56721;BME280;53183;47.412;18.884;2024-03-06T02:30:49;99061.94;;;4.32;100.00
56721;BME280;53183;47.412;18.884;2024-03-06T02:33:17;99068.03;;;4.32;100.00
56721;BME280;53183;47.412;18.884;2024-03-06T02:35:45;99074.03;;;4.34;100.00
56721;BME280;53183;47.412;18.884;2024-03-06T02:38:13;99064.37;;;4.36;100.00
56721;BME280;53183;47.412;18.884;2024-03-06T02:40:43;99066.78;;;4.42;100.00
56721;BME280;53183;47.412;18.884;2024-03-06T02:43:11;99066.69;;;4.45;100.00
56721;BME280;53183;47.412;18.884;2024-03-06T02:45:38;99059.47;;;4.52;100.00
56721;BME280;53183;47.412;18.884;2024-03-06T02:48:06;99065.22;;;4.37;100.00
56721;BME280;53183;47.412;18.884;2024-03-06T02:50:34;99069.09;;;4.27;100.00
56721;BME280;53183;47.412;18.884;2024-03-06T02:53:00;99064.16;;;4.17;100.00
56721;BME280;53183;47.412;18.884;2024-03-06T02:55:30;99071.34;;;4.12;100.00
56721;BME280;53183;47.412;18.884;2024-03-06T02:58:02;99071.34;;;4.12;100.00
56721;BME280;53183;47.412;18.884;2024-03-06T03:00:30;99073.09;;;4.12;100.00
56721;BME280;53183;47.412;18.884;2024-03-06T03:02:58;99073.94;;;4.12;100.00
56721;BME280;53183;47.412;18.884;2024-03-06T03:05:26;99079.09;;;4.14;100.00
56721;BME280;53183;47.412;18.884;2024-03-06T03:07:54;99072.13;;;4.14;100.00
56721;BME280;53183;47.412;18.884;2024-03-06T03:10:21;99073.31;;;4.06;100.00
56721;BME280;53183;47.412;18.884;2024-03-06T03:12:49;99076.97;;;4.00;100.00
56721;BME280;53183;47.412;18.884;2024-03-06T03:15:16;99083.41;;;3.90;100.00
56721;BME280;53183;47.412;18.884;2024-03-06T03:17:44;99084.31;;;3.89;100.00
56721;BME280;53183;47.412;18.884;2024-03-06T03:20:11;99086.97;;;3.87;100.00
56721;BME280;53183;47.412;18.884;2024-03-06T03:22:40;99084.44;;;3.86;100.00
56721;BME280;53183;47.412;18.884;2024-03-06T03:25:09;99088.53;;;3.93;100.00
56721;BME280;53183;47.412;18.884;2024-03-06T03:27:40;99089.50;;;3.90;100.00
56721;BME280;53183;47.412;18.884;2024-03-06T03:30:09;99086.87;;;3.90;100.00
56721;BME280;53183;47.412;18.884;2024-03-06T03:32:37;99089.66;;;3.86;100.00
56721;BME280;53183;47.412;18.884;2024-03-06T03:35:07;99096.75;;;3.82;100.00
56721;BME280;53183;47.412;18.884;2024-03-06T03:37:35;99094.34;;;3.74;100.00
56721;BME280;53183;47.412;18.884;2024-03-06T03:40:02;99098.84;;;3.71;100.00
56721;BME280;53183;47.412;18.884;2024-03-06T03:42:30;99098.94;;;3.68;100.00
56721;BME280;53183;47.412;18.884;2024-03-06T03:44:58;99104.25;;;3.65;100.00
56721;BME280;53183;47.412;18.884;2024-03-06T03:47:25;99102.72;;;3.59;100.00
56721;BME280;53183;47.412;18.884;2024-03-06T03:49:52;99108.97;;;3.53;100.00
56721;BME280;53183;47.412;18.884;2024-03-06T03:52:37;99110.06;;;3.46;100.00
56721;BME280;53183;47.412;18.884;2024-03-06T03:55:08;99114.47;;;3.44;100.00
56721;BME280;53183;47.412;18.884;2024-03-06T03:57:36;99112.78;;;3.43;100.00
56721;BME280;53183;47.412;18.884;2024-03-06T04:00:03;99105.84;;;3.42;100.00
56721;BME280;53183;47.412;18.884;2024-03-06T04:02:41;99106.72;;;3.41;100.00
56721;BME280;53183;47.412;18.884;2024-03-06T04:05:09;99112.72;;;3.45;100.00
56721;BME280;53183;47.412;18.884;2024-03-06T04:07:36;99106.53;;;3.47;100.00
56721;BME280;53183;47.412;18.884;2024-03-06T04:10:04;99113.69;;;3.42;100.00
56721;BME280;53183;47.412;18.884;2024-03-06T04:12:31;99114.56;;;3.41;100.00
56721;BME280;53183;47.412;18.884;2024-03-06T04:14:58;99107.81;;;3.36;100.00
56721;BME280;53183;47.412;18.884;2024-03-06T04:17:25;99111.94;;;3.43;100.00
56721;BME280;53183;47.412;18.884;2024-03-06T04:19:53;99114.72;;;3.37;100.00
56721;BME280;53183;47.412;18.884;2024-03-06T04:22:20;99118.28;;;3.34;100.00
56721;BME280;53183;47.412;18.884;2024-03-06T04:24:47;99117.37;;;3.35;100.00
56721;BME280;53183;47.412;18.884;2024-03-06T04:27:14;99126.03;;;3.37;100.00
56721;BME280;53183;47.412;18.884;2024-03-06T04:29:43;99120.81;;;3.37;100.00
56721;BME280;53183;47.412;18.884;2024-03-06T04:32:10;99126.94;;;3.36;100.00
56721;BME280;53183;47.412;18.884;2024-03-06T04:34:37;99127.81;;;3.35;100.00
56721;BME280;53183;47.412;18.884;2024-03-06T04:37:04;99125.28;;;3.32;100.00
56721;BME280;53183;47.412;18.884;2024-03-06T04:39:32;99124.50;;;3.30;100.00
56721;BME280;53183;47.412;18.884;2024-03-06T04:41:59;99136.72;;;3.29;100.00
56721;BME280;53183;47.412;18.884;2024-03-06T04:44:27;99133.09;;;3.34;100.00
56721;BME280;53183;47.412;18.884;2024-03-06T04:46:54;99130.44;;;3.35;100.00
56721;BME280;53183;47.412;18.884;2024-03-06T04:49:21;99132.34;;;3.30;100.00
56721;BME280;53183;47.412;18.884;2024-03-06T04:51:48;99135.88;;;3.27;100.00
56721;BME280;53183;47.412;18.884;2024-03-06T04:54:15;99137.75;;;3.24;100.00
56721;BME280;53183;47.412;18.884;2024-03-06T04:56:42;99142.06;;;3.25;100.00
56721;BME280;53183;47.412;18.884;2024-03-06T04:59:10;99146.47;;;3.23;100.00
56721;BME280;53183;47.412;18.884;2024-03-06T05:01:39;99147.44;;;3.19;100.00
56721;BME280;53183;47.412;18.884;2024-03-06T05:04:08;99147.59;;;3.14;100.00
56721;BME280;53183;47.412;18.884;2024-03-06T05:06:56;99152.66;;;3.19;100.00
56721;BME280;53183;47.412;18.884;2024-03-06T05:09:40;99155.34;;;3.17;100.00
56721;BME280;53183;47.412;18.884;2024-03-06T05:12:28;99156.19;;;3.18;100.00
56721;BME280;53183;47.412;18.884;2024-03-06T05:15:12;99156.69;;;3.31;100.00
56721;BME280;53183;47.412;18.884;2024-03-06T05:17:57;99153.13;;;3.33;100.00
56721;BME280;53183;47.412;18.884;2024-03-06T05:20:43;99152.88;;;3.42;100.00
56721;BME280;53183;47.412;18.884;2024-03-06T05:23:27;99148.06;;;3.57;100.00
56721;BME280;53183;47.412;18.884;2024-03-06T05:26:13;99150.62;;;3.58;100.00
56721;BME280;53183;47.412;18.884;2024-03-06T05:28:58;99151.38;;;3.62;100.00
56721;BME280;53183;47.412;18.884;2024-03-06T05:31:42;99151.34;;;3.63;100.00
56721;BME280;53183;47.412;18.884;2024-03-06T05:34:28;99146.94;;;3.65;100.00
56721;BME280;53183;47.412;18.884;2024-03-06T05:37:13;99142.25;;;3.75;100.00
56721;BME280;53183;47.412;18.884;2024-03-06T05:39:58;99151.53;;;3.85;100.00
56721;BME280;53183;47.412;18.884;2024-03-06T05:42:44;99155.25;;;4.05;100.00
56721;BME280;53183;47.412;18.884;2024-03-06T05:45:29;99150.38;;;4.20;100.00
56721;BME280;53183;47.412;18.884;2024-03-06T05:48:14;99158.66;;;4.33;100.00
56721;BME280;53183;47.412;18.884;2024-03-06T05:50:59;99151.16;;;4.49;100.00
56721;BME280;53183;47.412;18.884;2024-03-06T05:53:44;99155.69;;;4.69;100.00
56721;BME280;53183;47.412;18.884;2024-03-06T05:56:29;99154.53;;;4.78;100.00
56721;BME280;53183;47.412;18.884;2024-03-06T05:59:15;99160.81;;;4.97;100.00
56721;BME280;53183;47.412;18.884;2024-03-06T06:01:43;99159.72;;;5.26;100.00
56721;BME280;53183;47.412;18.884;2024-03-06T06:04:12;99171.31;;;5.43;100.00
56721;BME280;53183;47.412;18.884;2024-03-06T06:06:41;99166.81;;;5.46;100.00
56721;BME280;53183;47.412;18.884;2024-03-06T06:09:08;99169.59;;;5.65;100.00
56721;BME280;53183;47.412;18.884;2024-03-06T06:11:42;99177.19;;;5.95;100.00
56721;BME280;53183;47.412;18.884;2024-03-06T06:14:10;99170.06;;;6.20;100.00
56721;BME280;53183;47.412;18.884;2024-03-06T06:16:38;99172.94;;;6.34;100.00
56721;BME280;53183;47.412;18.884;2024-03-06T06:19:08;99167.28;;;6.45;100.00
56721;BME280;53183;47.412;18.884;2024-03-06T06:21:36;99175.31;;;6.61;100.00
56721;BME280;53183;47.412;18.884;2024-03-06T06:24:04;99173.25;;;6.69;100.00
56721;BME280;53183;47.412;18.884;2024-03-06T06:26:31;99177.16;;;7.00;100.00
56721;BME280;53183;47.412;18.884;2024-03-06T06:28:59;99178.13;;;7.37;100.00
56721;BME280;53183;47.412;18.884;2024-03-06T06:31:27;99182.47;;;7.75;100.00
56721;BME280;53183;47.412;18.884;2024-03-06T06:33:54;99173.88;;;8.44;100.00
56721;BME280;53183;47.412;18.884;2024-03-06T06:36:22;99182.91;;;9.24;100.00
56721;BME280;53183;47.412;18.884;2024-03-06T06:38:49;99179.25;;;9.76;100.00
56721;BME280;53183;47.412;18.884;2024-03-06T06:41:17;99181.06;;;10.53;100.00
56721;BME280;53183;47.412;18.884;2024-03-06T06:43:44;99182.91;;;10.81;100.00
56721;BME280;53183;47.412;18.884;2024-03-06T06:46:12;99186.88;;;10.88;100.00
56721;BME280;53183;47.412;18.884;2024-03-06T06:48:40;99184.94;;;11.06;98.14
56721;BME280;53183;47.412;18.884;2024-03-06T06:51:07;99182.19;;;11.08;98.40
56721;BME280;53183;47.412;18.884;2024-03-06T06:53:35;99187.22;;;11.12;97.64
56721;BME280;53183;47.412;18.884;2024-03-06T06:56:03;99189.00;;;11.12;98.87
56721;BME280;53183;47.412;18.884;2024-03-06T06:58:31;99195.91;;;11.71;94.87
56721;BME280;53183;47.412;18.884;2024-03-06T07:00:58;99192.59;;;12.09;93.01
56721;BME280;53183;47.412;18.884;2024-03-06T07:03:30;99196.59;;;12.29;89.69
56721;BME280;53183;47.412;18.884;2024-03-06T07:05:57;99191.56;;;12.39;88.55
56721;BME280;53183;47.412;18.884;2024-03-06T07:08:25;99192.87;;;12.59;87.04
56721;BME280;53183;47.412;18.884;2024-03-06T07:10:54;99193.44;;;12.64;87.15
56721;BME280;53183;47.412;18.884;2024-03-06T07:13:22;99199.94;;;12.46;86.37
56721;BME280;53183;47.412;18.884;2024-03-06T07:15:49;99206.34;;;12.02;89.50
56721;BME280;53183;47.412;18.884;2024-03-06T07:18:16;99203.75;;;11.44;92.77
56721;BME280;53183;47.412;18.884;2024-03-06T07:20:44;99199.59;;;11.26;94.78
56721;BME280;53183;47.412;18.884;2024-03-06T07:23:11;99195.53;;;11.06;95.84
56721;BME280;53183;47.412;18.884;2024-03-06T07:25:38;99196.53;;;10.89;96.85
56721;BME280;53183;47.412;18.884;2024-03-06T07:28:06;99203.53;;;10.90;96.67
56721;BME280;53183;47.412;18.884;2024-03-06T07:30:33;99197.09;;;10.94;97.31
56721;BME280;53183;47.412;18.884;2024-03-06T07:33:02;99200.34;;;10.99;96.53
56721;BME280;53183;47.412;18.884;2024-03-06T07:35:30;99203.06;;;10.98;97.62
56721;BME280;53183;47.412;18.884;2024-03-06T07:38:00;99206.94;;;11.07;97.43
56721;BME280;53183;47.412;18.884;2024-03-06T07:40:28;99204.38;;;11.05;97.67
56721;BME280;53183;47.412;18.884;2024-03-06T07:42:55;99206.75;;;11.10;98.20
56721;BME280;53183;47.412;18.884;2024-03-06T07:45:22;99212.44;;;11.18;98.62
56721;BME280;53183;47.412;18.884;2024-03-06T07:47:49;99209.41;;;11.53;97.31
56721;BME280;53183;47.412;18.884;2024-03-06T07:50:16;99212.44;;;11.75;95.48
56721;BME280;53183;47.412;18.884;2024-03-06T07:52:46;99216.13;;;11.72;94.59
56721;BME280;53183;47.412;18.884;2024-03-06T07:55:14;99219.03;;;11.96;94.33
56721;BME280;53183;47.412;18.884;2024-03-06T07:57:41;99217.94;;;12.13;93.22
56721;BME280;53183;47.412;18.884;2024-03-06T08:00:12;99224.00;;;12.42;92.07
56721;BME280;53183;47.412;18.884;2024-03-06T08:02:42;99217.63;;;12.72;90.21
56721;BME280;53183;47.412;18.884;2024-03-06T08:05:11;99213.63;;;12.92;86.53
56721;BME280;53183;47.412;18.884;2024-03-06T08:07:39;99218.03;;;13.31;85.60
56721;BME280;53183;47.412;18.884;2024-03-06T08:10:09;99220.34;;;13.61;84.04
56721;BME280;53183;47.412;18.884;2024-03-06T08:12:41;99224.66;;;13.75;83.05
56721;BME280;53183;47.412;18.884;2024-03-06T08:15:10;99227.81;;;13.44;84.59
56721;BME280;53183;47.412;18.884;2024-03-06T08:17:43;99219.84;;;13.31;83.62
56721;BME280;53183;47.412;18.884;2024-03-06T08:20:11;99222.16;;;13.48;84.51
56721;BME280;53183;47.412;18.884;2024-03-06T08:22:40;99213.41;;;13.84;80.77
56721;BME280;53183;47.412;18.884;2024-03-06T08:25:10;99222.16;;;13.61;84.29
56721;BME280;53183;47.412;18.884;2024-03-06T08:27:39;99224.37;;;13.54;83.13
56721;BME280;53183;47.412;18.884;2024-03-06T08:30:08;99219.72;;;13.58;82.13
56721;BME280;53183;47.412;18.884;2024-03-06T08:32:37;99218.41;;;13.76;82.03
56721;BME280;53183;47.412;18.884;2024-03-06T08:35:08;99226.34;;;14.02;79.85
56721;BME280;53183;47.412;18.884;2024-03-06T08:37:41;99230.34;;;14.07;79.92
56721;BME280;53183;47.412;18.884;2024-03-06T08:40:09;99233.16;;;14.54;77.10
56721;BME280;53183;47.412;18.884;2024-03-06T08:42:45;99236.59;;;14.67;75.62
56721;BME280;53183;47.412;18.884;2024-03-06T08:45:15;99229.81;;;14.63;75.59
56721;BME280;53183;47.412;18.884;2024-03-06T08:47:45;99229.13;;;14.72;74.76
56721;BME280;53183;47.412;18.884;2024-03-06T08:50:14;99235.38;;;14.60;74.14
56721;BME280;53183;47.412;18.884;2024-03-06T08:52:42;99227.78;;;14.67;75.89
56721;BME280;53183;47.412;18.884;2024-03-06T08:55:09;99231.50;;;14.88;74.22
56721;BME280;53183;47.412;18.884;2024-03-06T08:57:37;99228.16;;;14.73;74.86
56721;BME280;53183;47.412;18.884;2024-03-06T09:00:07;99226.19;;;14.88;72.81
56721;BME280;53183;47.412;18.884;2024-03-06T09:02:40;99231.09;;;15.17;73.48
56721;BME280;53183;47.412;18.884;2024-03-06T09:05:12;99229.56;;;15.37;71.72
56721;BME280;53183;47.412;18.884;2024-03-06T09:07:41;99231.87;;;14.95;70.96
56721;BME280;53183;47.412;18.884;2024-03-06T09:10:12;99236.88;;;14.75;70.98
56721;BME280;53183;47.412;18.884;2024-03-06T09:12:40;99233.47;;;14.25;73.94
56721;BME280;53183;47.412;18.884;2024-03-06T09:15:08;99240.00;;;14.69;73.35
56721;BME280;53183;47.412;18.884;2024-03-06T09:17:36;99235.91;;;15.12;71.57
56721;BME280;53183;47.412;18.884;2024-03-06T09:20:05;99239.47;;;15.23;71.37
56721;BME280;53183;47.412;18.884;2024-03-06T09:22:39;99239.00;;;15.63;71.29
56721;BME280;53183;47.412;18.884;2024-03-06T09:25:07;99238.66;;;15.57;69.28
56721;BME280;53183;47.412;18.884;2024-03-06T09:27:35;99234.78;;;15.61;68.86
56721;BME280;53183;47.412;18.884;2024-03-06T09:30:05;99237.09;;;15.99;67.92
56721;BME280;53183;47.412;18.884;2024-03-06T09:32:33;99236.00;;;15.90;67.63
56721;BME280;53183;47.412;18.884;2024-03-06T09:35:01;99236.09;;;16.11;65.98
56721;BME280;53183;47.412;18.884;2024-03-06T09:37:31;99242.41;;;15.88;65.11
56721;BME280;53183;47.412;18.884;2024-03-06T09:39:59;99236.50;;;15.73;65.68
56721;BME280;53183;47.412;18.884;2024-03-06T09:42:28;99235.50;;;15.85;65.80
56721;BME280;53183;47.412;18.884;2024-03-06T09:44:57;99235.91;;;15.69;65.62
56721;BME280;53183;47.412;18.884;2024-03-06T09:47:24;99225.31;;;15.34;66.79
56721;BME280;53183;47.412;18.884;2024-03-06T09:49:56;99223.84;;;15.41;67.50
56721;BME280;53183;47.412;18.884;2024-03-06T09:52:24;99226.88;;;15.48;66.54
56721;BME280;53183;47.412;18.884;2024-03-06T09:54:54;99226.28;;;15.56;66.02
56721;BME280;53183;47.412;18.884;2024-03-06T09:57:23;99223.72;;;15.20;67.05
56721;BME280;53183;47.412;18.884;2024-03-06T09:59:50;99218.81;;;14.92;68.31
56721;BME280;53183;47.412;18.884;2024-03-06T10:02:34;99218.03;;;14.78;68.45
56721;BME280;53183;47.412;18.884;2024-03-06T10:05:02;99219.41;;;14.84;68.68
56721;BME280;53183;47.412;18.884;2024-03-06T10:07:31;99217.88;;;15.15;68.32
56721;BME280;53183;47.412;18.884;2024-03-06T10:09:58;99216.09;;;14.81;69.29
56721;BME280;53183;47.412;18.884;2024-03-06T10:12:27;99212.34;;;14.83;68.27
56721;BME280;53183;47.412;18.884;2024-03-06T10:14:56;99214.38;;;15.26;67.83
56721;BME280;53183;47.412;18.884;2024-03-06T10:17:25;99216.06;;;15.05;67.65
56721;BME280;53183;47.412;18.884;2024-03-06T10:19:55;99213.97;;;14.97;68.03
56721;BME280;53183;47.412;18.884;2024-03-06T10:22:25;99212.50;;;14.82;69.69
56721;BME280;53183;47.412;18.884;2024-03-06T10:24:55;99211.25;;;14.74;68.67
56721;BME280;53183;47.412;18.884;2024-03-06T10:27:26;99214.72;;;14.99;69.33
56721;BME280;53183;47.412;18.884;2024-03-06T10:30:01;99210.97;;;15.01;68.76
56721;BME280;53183;47.412;18.884;2024-03-06T10:32:33;99209.37;;;14.99;67.79
56721;BME280;53183;47.412;18.884;2024-03-06T10:35:02;99202.84;;;14.92;67.75
56721;BME280;53183;47.412;18.884;2024-03-06T10:37:31;99203.28;;;14.50;69.92
56721;BME280;53183;47.412;18.884;2024-03-06T10:39:58;99201.41;;;14.64;71.19
56721;BME280;53183;47.412;18.884;2024-03-06T10:42:30;99204.03;;;14.88;68.65
56721;BME280;53183;47.412;18.884;2024-03-06T10:44:59;99201.03;;;15.04;67.67
56721;BME280;53183;47.412;18.884;2024-03-06T10:47:28;99194.44;;;15.43;66.34
56721;BME280;53183;47.412;18.884;2024-03-06T10:49:59;99196.84;;;15.46;65.71
56721;BME280;53183;47.412;18.884;2024-03-06T10:52:27;99195.91;;;15.47;65.54
56721;BME280;53183;47.412;18.884;2024-03-06T10:54:55;99195.16;;;15.56;65.54
56721;BME280;53183;47.412;18.884;2024-03-06T10:57:25;99197.22;;;15.53;64.86
56721;BME280;53183;47.412;18.884;2024-03-06T10:59:53;99203.16;;;15.56;63.96
56721;BME280;53183;47.412;18.884;2024-03-06T11:02:21;99197.88;;;15.67;62.99
56721;BME280;53183;47.412;18.884;2024-03-06T11:04:51;99186.94;;;15.59;64.40
56721;BME280;53183;47.412;18.884;2024-03-06T11:07:19;99186.22;;;15.57;65.10
56721;BME280;53183;47.412;18.884;2024-03-06T11:09:47;99181.12;;;15.99;63.70
56721;BME280;53183;47.412;18.884;2024-03-06T11:12:36;99177.47;;;16.44;62.41
56721;BME280;53183;47.412;18.884;2024-03-06T11:15:15;99172.00;;;16.02;62.64
56721;BME280;53183;47.412;18.884;2024-03-06T11:17:45;99170.37;;;16.22;61.25
56721;BME280;53183;47.412;18.884;2024-03-06T11:20:17;99161.53;;;16.21;60.53
56721;BME280;53183;47.412;18.884;2024-03-06T11:33:42;99150.72;;;16.55;59.64
56721;BME280;53183;47.412;18.884;2024-03-06T11:38:59;99152.06;;;15.96;61.02
56721;BME280;53183;47.412;18.884;2024-03-06T11:41:29;99145.53;;;15.78;61.48
56721;BME280;53183;47.412;18.884;2024-03-06T11:43:59;99143.72;;;15.56;61.87
56721;BME280;53183;47.412;18.884;2024-03-06T11:51:48;99136.09;;;15.74;61.12
56721;BME280;53183;47.412;18.884;2024-03-06T11:54:17;99134.84;;;16.00;60.82
56721;BME280;53183;47.412;18.884;2024-03-06T11:56:57;99136.59;;;16.11;59.82
56721;BME280;53183;47.412;18.884;2024-03-06T11:59:30;99132.03;;;16.34;60.27
56721;BME280;53183;47.412;18.884;2024-03-06T12:02:00;99123.91;;;16.03;60.59
56721;BME280;53183;47.412;18.884;2024-03-06T12:04:32;99135.38;;;15.38;62.48
56721;BME280;53183;47.412;18.884;2024-03-06T12:07:01;99137.50;;;15.89;62.15
56721;BME280;53183;47.412;18.884;2024-03-06T12:09:38;99130.09;;;16.04;60.90
56721;BME280;53183;47.412;18.884;2024-03-06T12:12:12;99128.62;;;16.32;59.61
56721;BME280;53183;47.412;18.884;2024-03-06T12:14:40;99117.22;;;16.41;59.75
56721;BME280;53183;47.412;18.884;2024-03-06T12:17:13;99112.31;;;16.25;60.25
56721;BME280;53183;47.412;18.884;2024-03-06T12:19:44;99133.66;;;15.82;61.25
56721;BME280;53183;47.412;18.884;2024-03-06T12:22:12;99123.09;;;16.03;59.92
56721;BME280;53183;47.412;18.884;2024-03-06T12:24:41;99120.34;;;15.59;62.69
56721;BME280;53183;47.412;18.884;2024-03-06T12:27:09;99123.50;;;15.42;62.33
56721;BME280;53183;47.412;18.884;2024-03-06T12:29:36;99119.28;;;15.06;63.68
56721;BME280;53183;47.412;18.884;2024-03-06T12:32:15;99120.00;;;15.08;65.10
56721;BME280;53183;47.412;18.884;2024-03-06T12:34:43;99118.81;;;15.34;63.60
56721;BME280;53183;47.412;18.884;2024-03-06T12:37:11;99117.47;;;15.29;62.37
56721;BME280;53183;47.412;18.884;2024-03-06T12:39:38;99113.72;;;15.20;63.37
56721;BME280;53183;47.412;18.884;2024-03-06T12:42:10;99115.66;;;14.95;64.21
56721;BME280;53183;47.412;18.884;2024-03-06T12:44:39;99107.19;;;15.13;62.79
56721;BME280;53183;47.412;18.884;2024-03-06T12:47:09;99107.78;;;15.16;61.89
56721;BME280;53183;47.412;18.884;2024-03-06T12:49:36;99105.75;;;15.31;62.29
56721;BME280;53183;47.412;18.884;2024-03-06T12:52:04;99102.00;;;15.34;61.40
56721;BME280;53183;47.412;18.884;2024-03-06T12:54:32;99102.47;;;15.16;63.24
56721;BME280;53183;47.412;18.884;2024-03-06T12:57:00;99105.59;;;14.88;63.49
56721;BME280;53183;47.412;18.884;2024-03-06T12:59:27;99103.41;;;14.93;64.90
56721;BME280;53183;47.412;18.884;2024-03-06T13:01:54;99102.59;;;15.15;64.64
56721;BME280;53183;47.412;18.884;2024-03-06T13:04:22;99098.84;;;15.29;61.35
56721;BME280;53183;47.412;18.884;2024-03-06T13:06:49;99098.31;;;15.46;63.11
56721;BME280;53183;47.412;18.884;2024-03-06T13:09:16;99092.50;;;15.52;62.31
56721;BME280;53183;47.412;18.884;2024-03-06T13:11:43;99090.50;;;15.99;61.77
56721;BME280;53183;47.412;18.884;2024-03-06T13:14:12;99089.03;;;16.06;61.20
56721;BME280;53183;47.412;18.884;2024-03-06T13:16:40;99092.03;;;15.58;62.77
56721;BME280;53183;47.412;18.884;2024-03-06T13:19:09;99088.25;;;15.72;63.63
56721;BME280;53183;47.412;18.884;2024-03-06T13:21:38;99090.69;;;15.64;63.32